DIRECCIÓN GENERAL DE AERONÁUTICA CIVIL
DIRECCIÓN METEOROLÓGICA DE CHILE
INFORMACIÓN METAR Y TAF

FIR PUERTO MONTT

Estación: SCQP
METAR SCQP 231300Z 18007KT 140V200 CAVOK 14/09 Q1018=

TAF SCQP 231030Z 2312/2412 VRB02KT CAVOK TX22/2319Z TN05/2409Z TEMPO 2312/2313 2000 BR SKC BECMG 2316/2318 23010KT BECMG 2401/2403 VRB01KT PROB40 TEMPO 2407/2411 0800 FG NSC=

Estación: SCVD
METAR SCVD 231300Z 00000 CAVOK 12/10 Q1020=

TAF SCVD 231030Z 2312/2400 18005KT CAVOK TN10/2312Z TX21/2319Z BECMG 2316/2318 20013KT=

Estación: SCJO
METAR SCJO 231300Z 17008KT 9999 BKN015 SCT200 12/09 Q1021=

TAF SCJO 231030Z 2312/2400 17005KT CAVOK TN10/2312Z TX18/2319Z TEMPO 2312/2314 9999 BKN010 BECMG 2316/2318 19013KT=

Estación: SCTE
METAR SCTE 231300Z 14014KT 9999 BKN013 SCT100 12/09 Q1022 NOSIG=

TAF SCTE 231040Z 2312/2412 15008KT 9999 BKN010 TX17/2319Z TN07/2408Z BECMG 2314/2316 SCT020 BECMG 2318/2320 14017KT CAVOK BECMG 2402/2404 18005KT TEMPO 2408/2412 9999 BKN010=

Estación: SCPQ
METAR SCPQ 231300Z 19010KT 9999 SCT009 OVC021 09/07 Q1023=

TAF SCPQ 231040Z 2312/2400 20008KT CAVOK TN09/2312Z TX14/2319Z TEMPO 2312/2314 4000 BR BKN008 BECMG 2316/2318 18015KT=

Estación: SCON
METAR SCON 231300Z 19009KT 9999 FEW020 11/07 Q1024=

TAF SCON 231040Z 2312/2400 22005KT CAVOK TN09/2312Z TX13/2319Z TEMPO 2312/2314 7000 BKN010 BECMG 2316/2318 18012KT=

Estación: SCTN
NIL=

NIL=

Estación: SCFT
METAR SCFT 231300Z VRB02KT 9999 NSC 09/05 Q1023=

NIL=

Estación: SCAP
METAR SCAP 231300Z AUTO 30004KT 270V330 //// // FEW011 ///// Q////=

NIL=

Estación: SCMK
METAR SCMK 231300Z 18015KT CAVOK 11/06 Q1024=

TAF SCMK 231040Z 2312/2400 17008KT CAVOK TN08/2312Z TX13/2319Z TEMPO 2312/2314 7000 BKN010 BECMG 2316/2318 20015KT=

Estación: SCAS
METAR SCAS 231300Z 24010KT 9999 FEW040 10/01 Q1026=

NIL=

Estación: SCCY
METAR SCCY 231300Z 05004KT CAVOK 10/02 Q1023=

TAF SCCY 231045Z 2312/2400 25007KT CAVOK TN06/2312Z TX15/2319Z=

Estación: SCBA
METAR SCBA 231300Z 30015KT CAVOK 08/M02 Q1022=

TAF SCBA 231050Z 2312/2412 30020KT CAVOK TX14/2320Z TN04/2409Z BECMG 2406/2408 27006KT=

Estación: SCCC
METAR SCCC 231300Z 32003KT CAVOK 13/M06 Q1021=

NIL=

Estación: SCHR
METAR SCHR 231300Z 29008KT 9999 FEW040 09/M01 Q1021=

TAF SCHR 231020Z 2312/2400 24005KT 9999 FEW030 TN04/2312Z TX15/2318Z=


Volver